Time;durP1;ratioP1;P1;durP2;ratioP2;P2;SDS_P1;SDS_P2;PMS_P1;PMS_P2;Temp;Humidity;BMP_temperature;BMP_pressure;BME280_temperature;BME280_humidity;BME280_pressure;Samples;Min_cycle;Max_cycle;Signal;HPM_P1;HPM_P2
2021/12/02 08:07:56;;;;;;;6.72;1.92;;;9.90;99.90;;;;;;6121069;22;1814294;-94
2021/12/02 08:17:17;;;;;;;1.05;0.80;;;10.50;99.90;;;;;;5998427;23;20071;-91
2021/12/02 08:27:40;;;;;;;3.25;0.88;;;11.00;99.50;;;;;;5938507;23;20046;-94
2021/12/02 08:34:00;;;;;;;2.47;0.95;;;11.30;98.70;;;;;;5973493;23;20010;-95
2021/12/02 08:40:17;;;;;;;3.38;1.05;;;11.40;98.10;;;;;;6169228;23;20016;-95
2021/12/02 08:46:26;;;;;;;4.10;1.08;;;11.50;98.20;;;;;;6151135;23;20029;-92
2021/12/02 08:48:58;;;;;;;10.23;3.30;;;11.60;97.80;;;;;;6168951;23;20002;-92
2021/12/02 08:51:27;;;;;;;8.15;1.40;;;11.70;97.70;;;;;;6166002;23;20013;-94
2021/12/02 08:53:59;;;;;;;4.70;1.45;;;11.70;97.40;;;;;;6170157;23;20009;-90
2021/12/02 08:56:54;;;;;;;5.97;1.40;;;11.80;97.20;;;;;;6175947;23;20005;-92
2021/12/02 08:59:58;;;;;;;18.33;5.75;;;11.90;97.00;;;;;;6173657;23;20021;-95
2021/12/02 09:03:20;;;;;;;2.50;0.82;;;11.90;97.10;;;;;;6164520;23;20044;-92
2021/12/02 09:06:20;;;;;;;;;;;;;;;;;;;;;
2021/12/02 09:08:56;;;;;;;13.27;5.20;;;12.10;96.30;;;;;;5998902;23;20103;-94
2021/12/02 09:15:33;;;;;;;5.85;1.33;;;12.30;95.60;;;;;;6073022;23;20446;-96
2021/12/02 09:18:29;;;;;;;1.52;0.80;;;12.30;95.30;;;;;;6045321;23;20007;-95
2021/12/02 09:51:33;;;;;;;2.92;0.45;;;13.10;93.60;;;;;;6130267;23;20097;-94
2021/12/02 10:03:28;;;;;;;3.65;1.52;;;13.40;92.90;;;;;;6121954;23;20089;-93
2021/12/02 10:09:52;;;;;;;6.60;2.42;;;13.50;93.10;;;;;;6070083;23;20046;-93
2021/12/02 10:12:21;;;;;;;8.57;2.70;;;13.60;92.30;;;;;;6128534;23;20425;-92
2021/12/02 10:15:17;;;;;;;6.60;2.40;;;13.60;92.00;;;;;;6104638;23;20013;-92
2021/12/02 10:17:49;;;;;;;;;;;13.60;91.40;;;;;;6125823;23;20006;-94
2021/12/02 10:20:44;;;;;;;2.05;1.23;;;13.60;91.80;;;;;;6104135;23;19904;-93
2021/12/02 10:26:03;;;;;;;2.55;0.80;;;13.70;91.80;;;;;;6138690;23;20017;-95
2021/12/02 10:28:47;;;;;;;3.65;1.25;;;13.70;91.10;;;;;;6102220;23;20318;-92
2021/12/02 10:32:13;;;;;;;3.15;1.50;;;13.80;91.80;;;;;;6101451;23;20073;-93
2021/12/02 10:35:36;;;;;;;;;;;;;;;;;;;;;
2021/12/02 10:42:19;;;;;;;2.03;1.10;;;14.10;91.10;;;;;;5928974;24;20530;-95
2021/12/02 10:45:08;;;;;;;3.38;0.85;;;14.10;91.20;;;;;;5994854;23;20015;-92
2021/12/02 10:47:39;;;;;;;3.25;0.80;;;14.20;90.60;;;;;;6037673;23;20086;-93
2021/12/02 12:07:37;;;;;;;0.77;0.32;;;16.00;82.30;;;;;;6139867;23;20091;-94
2021/12/02 12:10:44;;;;;;;5.75;2.60;;;16.30;82.20;;;;;;6163570;23;20013;-96
2021/12/02 12:13:55;;;;;;;2.70;0.50;;;16.30;80.30;;;;;;6162258;23;20005;-94
2021/12/02 12:33:23;;;;;;;1.65;0.93;;;16.50;78.30;;;;;;6049895;23;20014;-96
2021/12/02 12:36:07;;;;;;;2.13;0.77;;;16.50;79.20;;;;;;6102240;23;20002;-95
2021/12/02 12:38:47;;;;;;;3.23;0.93;;;16.60;77.10;;;;;;6128628;23;20010;-96
2021/12/02 12:41:22;;;;;;;4.32;1.92;;;16.70;77.00;;;;;;6104704;23;20390;-95
2021/12/02 12:44:03;;;;;;;3.90;1.60;;;16.60;76.70;;;;;;6150384;23;20020;-95
2021/12/02 12:47:04;;;;;;;6.80;2.70;;;16.70;76.90;;;;;;6165039;23;20011;-95
2021/12/02 13:20:31;;;;;;;1.77;0.90;;;16.00;76.70;;;;;;6165345;23;20451;-89
2021/12/02 13:27:19;;;;;;;2.70;2.17;;;16.00;74.90;;;;;;6117875;23;20008;-89
2021/12/02 13:50:18;;;;;;;0.65;0.20;;;15.50;76.80;;;;;;5927294;24;20114;-89
2021/12/02 13:52:57;;;;;;;1.70;0.73;;;15.50;76.00;;;;;;5934401;23;20475;-88
2021/12/02 13:55:34;;;;;;;1.92;0.55;;;15.50;75.90;;;;;;6041076;23;20089;-89
2021/12/02 14:00:48;;;;;;;1.35;0.55;;;15.40;77.70;;;;;;6198900;23;20005;-89
2021/12/02 14:03:25;;;;;;;2.47;0.88;;;15.30;77.80;;;;;;6163147;23;19997;-88
2021/12/02 14:06:15;;;;;;;6.72;1.83;;;15.30;77.50;;;;;;6161277;23;20001;-88
2021/12/02 14:08:41;;;;;;;2.72;0.57;;;15.30;76.60;;;;;;6092624;23;20418;-89
2021/12/02 14:11:24;;;;;;;0.98;0.52;;;15.30;77.30;;;;;;6162685;23;20035;-89
2021/12/02 14:13:52;;;;;;;2.95;1.27;;;15.30;76.20;;;;;;6162400;23;20016;-89
2021/12/02 14:16:24;;;;;;;4.50;1.27;;;15.30;76.80;;;;;;6162816;23;20009;-88
2021/12/02 14:18:51;;;;;;;7.75;2.75;;;15.30;76.70;;;;;;6163569;23;20052;-89
2021/12/02 14:21:17;;;;;;;4.15;1.50;;;15.40;76.90;;;;;;6163570;23;20092;-89
2021/12/02 14:23:49;;;;;;;12.02;3.78;;;15.60;76.20;;;;;;6163108;23;20376;-89
2021/12/02 14:26:29;;;;;;;10.88;4.18;;;15.90;77.40;;;;;;6163216;23;20008;-89
2021/12/02 14:28:56;;;;;;;12.18;4.90;;;16.30;76.60;;;;;;6162804;23;20436;-89
2021/12/02 14:35:20;;;;;;;9.65;3.45;;;16.70;74.60;;;;;;6098575;23;20010;-91
2021/12/02 14:37:51;;;;;;;8.05;3.47;;;16.50;75.10;;;;;;6075192;23;20006;-89
2021/12/02 14:43:51;;;;;;;5.97;1.92;;;16.20;74.70;;;;;;6188052;23;20040;-90
2021/12/02 14:46:37;;;;;;;19.10;5.43;;;16.00;76.20;;;;;;6162083;23;20001;-90
2021/12/02 14:49:11;;;;;;;32.35;9.98;;;15.90;76.90;;;;;;6163664;23;20009;-89
2021/12/02 14:51:59;;;;;;;23.15;7.93;;;15.70;77.00;;;;;;6162619;23;20324;-90
2021/12/02 15:08:36;;;;;;;54.20;16.58;;;15.00;79.60;;;;;;6069332;23;20003;-91
2021/12/02 15:52:02;;;;;;;28.00;9.05;;;14.20;81.20;;;;;;6186891;23;20040;-90
2021/12/02 15:54:40;;;;;;;23.70;9.50;;;14.10;82.00;;;;;;6163003;23;20013;-92
2021/12/02 15:57:09;;;;;;;30.77;14.18;;;14.00;82.00;;;;;;6163102;23;20065;-91
2021/12/02 16:00:24;;;;;;;50.63;18.58;;;14.00;82.40;;;;;;6162561;23;20017;-91
2021/12/02 16:03:12;;;;;;;88.07;28.08;;;13.80;83.20;;;;;;6163253;23;20017;-91
2021/12/02 16:12:44;;;;;;;72.97;24.27;;;13.60;85.10;;;;;;6041910;23;20062;-92
2021/12/02 16:15:44;;;;;;;94.65;30.77;;;13.50;84.20;;;;;;6019054;23;20019;-91
2021/12/02 16:22:03;;;;;;;34.13;12.50;;;13.40;84.40;;;;;;6043083;23;20020;-92
2021/12/02 16:24:37;;;;;;;42.58;12.85;;;13.40;83.80;;;;;;6018767;23;20000;-92
2021/12/02 16:27:30;;;;;;;26.90;8.77;;;13.50;83.10;;;;;;6018498;23;20086;-93
2021/12/02 16:30:05;;;;;;;35.72;11.20;;;13.50;82.80;;;;;;6018921;23;20099;-92
2021/12/02 16:32:36;;;;;;;36.20;12.00;;;13.50;82.90;;;;;;6082652;23;20043;-92
2021/12/02 16:35:12;;;;;;;15.98;5.60;;;13.50;82.60;;;;;;6165109;23;20012;-93
2021/12/02 16:37:57;;;;;;;14.20;4.60;;;13.60;82.10;;;;;;6164034;23;20088;-93
2021/12/02 16:43:40;;;;;;;28.23;10.85;;;13.70;82.30;;;;;;6190129;23;20036;-93
2021/12/02 16:46:12;;;;;;;21.63;8.80;;;13.70;82.30;;;;;;6165076;23;20320;-93
2021/12/02 16:48:41;;;;;;;15.45;7.05;;;13.70;82.10;;;;;;6164448;23;20005;-93
